Time;durP1;ratioP1;P1;durP2;ratioP2;P2;SDS_P1;SDS_P2;PMS_P1;PMS_P2;Temp;Humidity;BMP_temperature;BMP_pressure;BME280_temperature;BME280_humidity;BME280_pressure;Samples;Min_cycle;Max_cycle;Signal;HPM_P1;HPM_P2
2022/01/28 00:00:18;;;;;;;89.13;38.30;;;4.50;99.90;;;;;;5033022;28;20501;-76
2022/01/28 00:05:28;;;;;;;92.10;37.58;;;4.40;99.90;;;;;;5049050;28;20021;-76
2022/01/28 00:07:55;;;;;;;96.40;40.53;;;4.40;99.90;;;;;;5050252;28;20474;-76
2022/01/28 00:10:23;;;;;;;94.35;40.42;;;4.40;99.90;;;;;;5033037;28;20029;-76
2022/01/28 00:15:43;;;;;;;93.60;39.13;;;4.30;99.90;;;;;;5058315;28;20039;-76
2022/01/28 00:38:00;;;;;;;96.07;39.17;;;4.40;99.90;;;;;;5051351;28;20505;-76
2022/01/28 00:39:38;;;;;;;90.30;39.88;;;4.40;99.90;;;;;;5037696;28;20033;-76
2022/01/28 00:42:04;;;;;;;96.53;39.63;;;4.40;99.90;;;;;;5033561;28;20371;-76
2022/01/28 00:44:30;;;;;;;103.40;40.10;;;4.40;99.90;;;;;;5051283;28;20013;-76
2022/01/28 00:46:56;;;;;;;106.30;41.25;;;4.40;99.90;;;;;;5051461;28;20033;-76
2022/01/28 00:49:22;;;;;;;120.47;45.33;;;4.40;99.90;;;;;;5051322;28;20051;-76
2022/01/28 00:51:50;;;;;;;118.53;43.90;;;4.40;99.90;;;;;;5051374;28;20389;-76
2022/01/28 00:54:19;;;;;;;131.63;45.78;;;4.40;99.90;;;;;;5051152;28;20419;-76
2022/01/28 00:56:46;;;;;;;119.63;45.33;;;4.40;99.90;;;;;;5033227;28;20079;-76
2022/01/28 00:59:12;;;;;;;119.78;45.75;;;4.40;99.90;;;;;;5033372;28;20021;-75
2022/01/28 01:01:38;;;;;;;113.20;44.95;;;4.40;99.90;;;;;;5051246;28;20155;-76
2022/01/28 01:04:04;;;;;;;119.18;44.83;;;4.40;99.90;;;;;;5033171;28;20560;-76
2022/01/28 01:06:31;;;;;;;118.45;45.10;;;4.50;99.90;;;;;;5051133;28;20522;-76
2022/01/28 01:08:58;;;;;;;126.03;45.03;;;4.50;99.90;;;;;;5051118;28;20497;-76
2022/01/28 01:11:25;;;;;;;129.40;45.60;;;4.50;99.90;;;;;;5054794;28;20106;-76
2022/01/28 01:13:51;;;;;;;131.48;47.72;;;4.50;99.90;;;;;;5055172;28;20024;-76
2022/01/28 01:16:25;;;;;;;134.95;46.38;;;4.50;99.90;;;;;;5060557;28;20045;-76
2022/01/28 01:19:02;;;;;;;133.68;46.75;;;4.40;99.90;;;;;;5075037;28;20028;-76
2022/01/28 01:21:30;;;;;;;136.70;47.08;;;4.50;99.90;;;;;;5057045;28;20462;-76
2022/01/28 01:23:57;;;;;;;126.75;47.50;;;4.40;99.90;;;;;;5074789;28;20239;-76
2022/01/28 01:26:31;;;;;;;130.00;47.55;;;4.50;99.90;;;;;;5056873;28;20028;-76
2022/01/28 01:28:57;;;;;;;130.35;46.15;;;4.50;99.90;;;;;;5056922;28;20020;-76
2022/01/28 01:31:24;;;;;;;131.40;45.40;;;4.50;99.90;;;;;;5074795;28;20479;-76
2022/01/28 01:36:18;;;;;;;125.28;46.67;;;4.50;99.90;;;;;;5074632;28;20029;-76
2022/01/28 01:38:44;;;;;;;128.73;44.90;;;4.50;99.90;;;;;;5074719;28;20074;-76
2022/01/28 01:41:16;;;;;;;124.18;45.03;;;4.50;99.90;;;;;;5074627;28;20020;-76
2022/01/28 01:54:25;;;;;;;108.97;40.85;;;4.40;99.90;;;;;;5074282;28;20104;-76
2022/01/28 01:56:54;;;;;;;108.70;42.72;;;4.40;99.90;;;;;;5074276;28;20456;-76
2022/01/28 01:59:20;;;;;;;103.95;40.17;;;4.40;99.90;;;;;;5074146;28;20055;-76
2022/01/28 02:01:45;;;;;;;105.53;40.45;;;4.40;99.90;;;;;;5074304;28;20115;-76
2022/01/28 02:04:11;;;;;;;111.25;40.58;;;4.40;99.90;;;;;;5057164;28;20021;-76
2022/01/28 02:06:38;;;;;;;116.22;41.40;;;4.50;99.90;;;;;;5054456;28;20478;-76
2022/01/28 02:09:05;;;;;;;104.95;42.72;;;4.40;99.90;;;;;;5057478;28;20465;-76
2022/01/28 02:11:31;;;;;;;104.32;41.97;;;4.40;99.90;;;;;;5074168;28;20058;-76
2022/01/28 02:13:57;;;;;;;111.18;41.22;;;4.40;99.90;;;;;;5074144;28;20024;-76
2022/01/28 02:16:23;;;;;;;104.38;41.85;;;4.40;99.90;;;;;;5073806;28;20466;-76
2022/01/28 02:18:48;;;;;;;105.45;41.80;;;4.40;99.90;;;;;;5056049;28;20397;-76
2022/01/28 02:21:16;;;;;;;111.50;41.65;;;4.40;99.90;;;;;;5073413;28;20024;-76
2022/01/28 02:23:46;;;;;;;109.07;42.05;;;4.40;99.90;;;;;;5055552;28;20038;-76
2022/01/28 02:26:15;;;;;;;114.13;41.80;;;4.40;99.90;;;;;;5073772;28;20017;-76
2022/01/28 02:28:43;;;;;;;112.60;41.90;;;4.40;99.90;;;;;;5055853;28;20024;-76
2022/01/28 02:31:09;;;;;;;111.78;41.85;;;4.40;99.90;;;;;;5073819;28;20020;-76
2022/01/28 02:33:38;;;;;;;108.22;41.65;;;4.40;99.90;;;;;;5055557;28;20035;-76
2022/01/28 02:36:06;;;;;;;108.03;42.08;;;4.40;99.90;;;;;;5073596;28;20025;-76
2022/01/28 02:38:33;;;;;;;106.05;41.30;;;4.40;99.90;;;;;;5073788;28;20032;-76
2022/01/28 02:41:04;;;;;;;99.28;40.35;;;4.30;99.90;;;;;;5073748;28;20025;-76
2022/01/28 02:46:09;;;;;;;99.68;39.53;;;4.40;99.90;;;;;;5073581;28;20028;-76
2022/01/28 02:48:38;;;;;;;111.32;40.97;;;4.40;99.90;;;;;;5055400;28;20032;-76
2022/01/28 02:54:01;;;;;;;92.77;38.17;;;4.40;99.90;;;;;;5070069;28;20048;-76
2022/01/28 02:56:38;;;;;;;112.97;39.83;;;4.40;99.90;;;;;;5073110;28;20287;-76
2022/01/28 02:59:04;;;;;;;103.97;40.75;;;4.40;99.90;;;;;;5073119;28;20554;-76
2022/01/28 03:01:30;;;;;;;102.60;39.58;;;4.40;99.90;;;;;;5073239;28;20032;-76
2022/01/28 03:03:58;;;;;;;96.00;37.38;;;4.40;99.90;;;;;;5073004;28;20433;-76
2022/01/28 03:06:23;;;;;;;100.90;38.30;;;4.40;99.90;;;;;;5072933;28;20111;-76
2022/01/28 03:09:08;;;;;;;102.57;38.50;;;4.30;99.90;;;;;;5055193;28;20111;-76
2022/01/28 03:19:45;;;;;;;95.85;37.78;;;4.30;99.90;;;;;;5073120;28;20501;-76
2022/01/28 03:22:11;;;;;;;85.70;36.10;;;4.30;99.90;;;;;;5054619;28;20021;-76
2022/01/28 03:24:41;;;;;;;89.20;34.80;;;4.30;99.90;;;;;;5054601;28;20025;-76
2022/01/28 03:27:14;;;;;;;81.60;35.38;;;4.20;99.90;;;;;;5071175;28;20107;-76
2022/01/28 03:29:39;;;;;;;92.18;35.35;;;4.20;99.90;;;;;;5072789;28;20047;-76
2022/01/28 03:32:05;;;;;;;83.30;33.78;;;4.10;99.90;;;;;;5053810;28;20033;-76
2022/01/28 03:34:31;;;;;;;89.13;36.70;;;4.10;99.90;;;;;;5072271;28;20496;-76
2022/01/28 03:36:57;;;;;;;85.10;35.42;;;4.10;99.90;;;;;;5072404;28;20086;-76
2022/01/28 03:39:23;;;;;;;82.20;34.22;;;4.00;99.90;;;;;;5054485;28;20024;-76
2022/01/28 03:41:49;;;;;;;85.55;34.85;;;3.90;99.90;;;;;;5054180;28;20033;-76
2022/01/28 03:44:15;;;;;;;87.15;35.50;;;3.90;99.90;;;;;;5054268;28;20108;-76
2022/01/28 03:46:40;;;;;;;83.80;33.93;;;3.90;99.90;;;;;;5072253;28;20028;-76
2022/01/28 03:49:06;;;;;;;90.97;35.47;;;3.90;99.90;;;;;;5072363;28;20028;-76
2022/01/28 03:51:32;;;;;;;86.55;35.28;;;3.90;99.90;;;;;;5072136;28;20089;-76
2022/01/28 03:53:58;;;;;;;87.72;34.70;;;3.90;99.90;;;;;;5068695;28;20024;-76
2022/01/28 03:56:24;;;;;;;75.47;33.87;;;3.80;99.90;;;;;;5072042;28;20043;-76
2022/01/28 03:58:50;;;;;;;83.97;35.60;;;3.90;99.90;;;;;;5054053;28;20028;-76
2022/01/28 04:01:20;;;;;;;81.03;35.33;;;3.90;99.90;;;;;;5070434;28;20113;-76
2022/01/28 04:11:34;;;;;;;85.03;34.93;;;4.00;99.90;;;;;;5052232;28;20598;-76
2022/01/28 04:14:18;;;;;;;71.23;32.20;;;3.90;99.90;;;;;;5033866;28;20379;-76
2022/01/28 04:19:28;;;;;;;82.70;32.75;;;3.70;99.90;;;;;;5051992;28;20448;-75
2022/01/28 04:21:53;;;;;;;70.37;32.17;;;3.70;99.90;;;;;;5051825;28;20104;-76
2022/01/28 04:24:19;;;;;;;80.97;33.03;;;3.70;99.90;;;;;;5051641;28;20048;-76
2022/01/28 04:26:45;;;;;;;74.63;32.10;;;3.70;99.90;;;;;;5033848;28;20486;-76
2022/01/28 04:29:13;;;;;;;74.70;30.70;;;3.60;99.90;;;;;;5051781;28;20036;-76
2022/01/28 04:31:46;;;;;;;82.90;33.97;;;3.60;99.90;;;;;;5033927;28;20029;-76
2022/01/28 04:34:13;;;;;;;75.43;33.23;;;3.50;99.90;;;;;;5050174;28;20071;-76
2022/01/28 04:36:51;;;;;;;72.53;30.80;;;3.60;99.90;;;;;;5051491;28;20025;-76
2022/01/28 04:39:25;;;;;;;77.87;33.90;;;3.60;99.90;;;;;;5051605;28;20528;-76
2022/01/28 04:42:21;;;;;;;80.83;32.90;;;3.70;99.90;;;;;;5051523;28;20044;-76
2022/01/28 04:45:03;;;;;;;69.93;31.33;;;3.70;99.90;;;;;;5050411;28;20036;-76
2022/01/28 04:50:04;;;;;;;74.37;33.10;;;3.70;99.90;;;;;;5051491;28;20033;-76
2022/01/28 05:13:46;;;;;;;74.60;32.33;;;3.70;99.90;;;;;;4970194;28;20034;-76
2022/01/28 05:26:55;;;;;;;86.90;36.90;;;3.70;99.90;;;;;;5051068;28;20025;-76
2022/01/28 05:29:20;;;;;;;85.77;34.83;;;3.70;99.90;;;;;;5049843;28;20386;-76
2022/01/28 05:31:47;;;;;;;85.67;34.83;;;3.70;99.90;;;;;;5050877;28;20104;-76
2022/01/28 05:34:13;;;;;;;82.03;34.67;;;3.70;99.90;;;;;;5032900;28;20466;-76
2022/01/28 05:36:39;;;;;;;84.47;33.90;;;3.70;99.90;;;;;;5050901;28;20061;-76
2022/01/28 05:39:05;;;;;;;79.00;33.30;;;3.70;99.90;;;;;;5050762;28;20074;-76
2022/01/28 05:41:32;;;;;;;74.30;31.90;;;3.60;99.90;;;;;;5050642;28;20032;-78
2022/01/28 05:43:57;;;;;;;73.47;31.80;;;3.50;99.90;;;;;;5034424;28;20382;-78
2022/01/28 05:46:27;;;;;;;74.90;30.83;;;3.50;99.90;;;;;;5052151;28;20037;-79
2022/01/28 05:48:53;;;;;;;75.47;31.87;;;3.40;99.90;;;;;;5052462;28;20429;-78
2022/01/28 05:51:19;;;;;;;71.37;32.53;;;3.40;99.90;;;;;;5035681;28;20036;-78
2022/01/28 05:53:44;;;;;;;64.97;30.47;;;3.40;99.90;;;;;;5034024;28;20104;-78
2022/01/28 05:56:10;;;;;;;72.67;32.03;;;3.40;99.90;;;;;;5063162;28;20584;-78
2022/01/28 05:58:59;;;;;;;77.23;32.83;;;3.40;99.90;;;;;;5074939;28;20023;-78
2022/01/28 06:01:25;;;;;;;83.70;34.67;;;3.50;99.90;;;;;;5020044;28;20037;-78
2022/01/28 06:03:50;;;;;;;85.37;35.50;;;3.50;99.90;;;;;;5075222;28;20046;-78
2022/01/28 06:06:22;;;;;;;88.60;36.00;;;3.50;99.90;;;;;;5075306;28;20052;-78
2022/01/28 06:08:52;;;;;;;87.88;36.20;;;3.60;99.90;;;;;;5075648;28;20107;-78
2022/01/28 06:11:19;;;;;;;79.60;33.90;;;3.50;99.90;;;;;;5057292;28;20062;-78
2022/01/28 06:13:44;;;;;;;96.53;37.27;;;3.60;99.90;;;;;;5074041;28;20059;-78
2022/01/28 06:16:15;;;;;;;90.67;38.47;;;3.60;99.90;;;;;;5075218;28;20057;-79
2022/01/28 06:18:42;;;;;;;95.27;37.10;;;3.60;99.90;;;;;;5075191;28;20562;-79
2022/01/28 06:21:08;;;;;;;97.37;37.97;;;3.60;99.90;;;;;;5075091;28;20021;-78
2022/01/28 06:23:34;;;;;;;87.03;35.30;;;3.60;99.90;;;;;;5074879;28;20111;-78
2022/01/28 06:26:00;;;;;;;92.77;36.70;;;3.50;99.90;;;;;;5075264;28;20029;-78
2022/01/28 06:28:26;;;;;;;77.17;34.30;;;3.40;99.90;;;;;;5074596;28;20029;-76
2022/01/28 06:30:52;;;;;;;77.33;31.03;;;3.40;99.90;;;;;;5072997;28;20028;-76
2022/01/28 06:33:18;;;;;;;71.20;30.47;;;3.40;99.90;;;;;;5071685;28;20032;-76
2022/01/28 06:35:45;;;;;;;75.30;32.37;;;3.40;99.90;;;;;;5053717;28;20038;-76
2022/01/28 06:38:11;;;;;;;74.27;31.33;;;3.40;99.90;;;;;;5071748;28;20028;-76
2022/01/28 06:40:37;;;;;;;72.03;30.80;;;3.30;99.90;;;;;;5071571;28;20478;-76
2022/01/28 06:43:04;;;;;;;72.97;30.97;;;3.30;99.90;;;;;;5071650;28;20520;-76
2022/01/28 06:45:29;;;;;;;62.90;29.33;;;3.30;99.90;;;;;;5071882;28;20322;-76
2022/01/28 06:47:55;;;;;;;63.07;27.83;;;3.30;99.90;;;;;;5055376;28;20029;-76
2022/01/28 06:50:21;;;;;;;71.60;31.60;;;3.30;99.90;;;;;;5055417;28;20036;-76
2022/01/28 06:52:47;;;;;;;62.07;28.27;;;3.30;99.90;;;;;;5073357;28;20382;-76
2022/01/28 06:55:17;;;;;;;70.83;29.80;;;3.30;99.90;;;;;;5055483;28;20541;-76
2022/01/28 06:57:43;;;;;;;60.87;28.10;;;3.30;99.90;;;;;;5055325;28;20123;-76
2022/01/28 07:00:10;;;;;;;67.57;29.37;;;3.30;99.90;;;;;;5055326;28;20029;-76
2022/01/28 07:02:36;;;;;;;62.93;27.60;;;3.30;99.90;;;;;;5055199;28;20052;-76
2022/01/28 07:05:04;;;;;;;66.27;28.50;;;3.30;99.90;;;;;;5073045;28;20389;-76
2022/01/28 07:07:30;;;;;;;68.20;30.63;;;3.30;99.90;;;;;;5071968;28;20028;-76
2022/01/28 07:09:56;;;;;;;68.10;30.77;;;3.30;99.90;;;;;;5055174;28;20020;-76
2022/01/28 07:12:22;;;;;;;70.43;30.87;;;3.30;99.90;;;;;;5072638;28;20558;-76
2022/01/28 07:14:49;;;;;;;65.03;28.80;;;3.40;99.90;;;;;;5073095;28;20028;-76
2022/01/28 07:17:15;;;;;;;72.97;30.37;;;3.30;99.90;;;;;;5072762;28;20044;-76
2022/01/28 07:19:41;;;;;;;74.03;29.33;;;3.40;99.90;;;;;;5071400;28;20423;-76
2022/01/28 07:22:07;;;;;;;76.93;32.77;;;3.40;99.90;;;;;;5072793;28;20462;-76
2022/01/28 07:24:33;;;;;;;73.17;31.43;;;3.50;99.90;;;;;;5055899;28;20028;-76
2022/01/28 07:26:59;;;;;;;73.67;30.20;;;3.50;99.90;;;;;;5056083;28;20126;-76
2022/01/28 07:29:31;;;;;;;77.67;33.50;;;3.60;99.90;;;;;;5055888;28;20436;-76
2022/01/28 07:31:57;;;;;;;81.18;34.28;;;3.60;99.90;;;;;;5054839;28;20040;-76
2022/01/28 07:34:23;;;;;;;73.17;31.00;;;3.60;99.90;;;;;;5072837;28;20029;-76
2022/01/28 07:36:49;;;;;;;74.63;31.20;;;3.60;99.90;;;;;;5073271;28;20032;-76
2022/01/28 07:39:14;;;;;;;68.73;30.97;;;3.60;99.90;;;;;;5073603;28;20639;-76
2022/01/28 07:41:40;;;;;;;60.90;28.50;;;3.60;99.90;;;;;;5055564;28;20025;-76
2022/01/28 07:44:06;;;;;;;77.93;32.33;;;3.60;99.90;;;;;;5048419;28;20075;-76
2022/01/28 07:46:33;;;;;;;74.33;30.67;;;3.60;99.90;;;;;;5045550;28;20025;-76
2022/01/28 07:48:59;;;;;;;75.23;33.13;;;3.60;99.90;;;;;;5061703;28;20028;-76
2022/01/28 07:51:28;;;;;;;74.63;31.83;;;3.50;99.90;;;;;;5060285;28;20028;-76
2022/01/28 07:53:54;;;;;;;77.10;31.63;;;3.50;99.90;;;;;;5053252;28;20025;-76
2022/01/28 07:56:22;;;;;;;73.73;33.37;;;3.60;99.90;;;;;;5038834;28;20060;-76
2022/01/28 07:58:47;;;;;;;80.33;34.03;;;3.60;99.90;;;;;;5053429;28;20029;-76
2022/01/28 08:01:13;;;;;;;73.13;31.37;;;3.60;99.90;;;;;;5053284;28;20083;-76
2022/01/28 08:03:39;;;;;;;78.77;32.27;;;3.70;99.90;;;;;;5035431;28;20494;-76
2022/01/28 08:06:05;;;;;;;85.90;32.60;;;3.70;99.90;;;;;;5053456;28;20091;-76
2022/01/28 08:08:31;;;;;;;79.97;32.87;;;3.70;99.90;;;;;;5035789;28;20119;-76
2022/01/28 08:10:57;;;;;;;89.83;34.83;;;3.80;99.90;;;;;;5053131;28;20021;-76
2022/01/28 08:13:22;;;;;;;86.07;34.67;;;3.80;99.90;;;;;;5034742;28;20025;-76
2022/01/28 08:15:49;;;;;;;83.90;35.83;;;3.90;99.90;;;;;;5052968;28;20028;-76
2022/01/28 08:18:15;;;;;;;79.27;35.37;;;3.90;99.90;;;;;;5052168;28;20158;-76
2022/01/28 08:20:40;;;;;;;83.67;34.40;;;4.00;99.90;;;;;;5035258;28;20546;-76
2022/01/28 08:23:06;;;;;;;77.40;33.95;;;4.00;99.90;;;;;;5052609;28;20029;-76
2022/01/28 08:25:35;;;;;;;86.53;35.37;;;4.00;99.90;;;;;;5053158;28;20021;-76
2022/01/28 08:28:01;;;;;;;81.00;35.27;;;4.00;99.90;;;;;;5035201;28;20032;-75
2022/01/28 08:30:29;;;;;;;81.43;32.97;;;4.00;99.90;;;;;;5034732;28;20083;-76
2022/01/28 08:32:55;;;;;;;85.27;36.17;;;4.10;99.90;;;;;;5034647;28;20652;-76
2022/01/28 08:35:33;;;;;;;89.05;35.20;;;4.10;99.90;;;;;;5052574;28;20040;-76
2022/01/28 08:38:00;;;;;;;93.27;36.10;;;4.20;99.90;;;;;;5034822;28;20590;-76
2022/01/28 08:40:28;;;;;;;88.57;36.88;;;4.20;99.90;;;;;;5053011;28;20483;-76
2022/01/28 08:42:54;;;;;;;89.90;36.17;;;4.20;99.90;;;;;;5034814;28;20027;-76
2022/01/28 08:45:21;;;;;;;95.45;37.85;;;4.30;99.90;;;;;;5052459;28;20490;-76
2022/01/28 08:47:47;;;;;;;95.45;40.55;;;4.30;99.90;;;;;;5052702;28;20095;-76
2022/01/28 08:50:13;;;;;;;98.65;41.00;;;4.30;99.90;;;;;;5052914;28;20052;-76
2022/01/28 08:52:39;;;;;;;98.65;40.45;;;4.30;99.90;;;;;;5034771;28;20360;-76
2022/01/28 08:55:05;;;;;;;109.38;41.45;;;4.30;99.90;;;;;;5052592;28;20029;-76
2022/01/28 08:57:31;;;;;;;101.30;42.47;;;4.20;99.90;;;;;;5051428;28;20021;-77
2022/01/28 08:59:57;;;;;;;101.97;42.78;;;4.20;99.90;;;;;;5033254;28;20384;-77
2022/01/28 09:02:23;;;;;;;106.70;42.78;;;4.30;99.90;;;;;;5033248;28;20028;-76
2022/01/28 09:04:49;;;;;;;108.22;41.75;;;4.30;99.90;;;;;;5033313;28;20103;-77
2022/01/28 09:07:18;;;;;;;99.47;41.70;;;4.30;99.90;;;;;;5033160;28;20040;-76
2022/01/28 09:09:50;;;;;;;105.20;43.95;;;4.40;99.90;;;;;;5051280;28;20032;-77
2022/01/28 09:14:54;;;;;;;106.75;41.40;;;4.50;99.90;;;;;;5051186;28;20037;-77
2022/01/28 09:17:21;;;;;;;102.63;40.38;;;4.50;99.90;;;;;;5050950;28;20056;-77
2022/01/28 09:19:48;;;;;;;101.78;41.20;;;4.50;99.90;;;;;;5050999;28;20486;-77
2022/01/28 09:22:14;;;;;;;102.93;41.30;;;4.50;99.90;;;;;;5050938;28;20024;-77
2022/01/28 09:24:39;;;;;;;110.38;43.65;;;4.50;99.90;;;;;;5051027;28;20029;-77
2022/01/28 09:27:06;;;;;;;100.47;41.95;;;4.50;99.90;;;;;;5051109;28;20048;-77
2022/01/28 09:29:31;;;;;;;106.72;43.25;;;4.40;99.90;;;;;;5051105;28;20033;-77
2022/01/28 09:31:59;;;;;;;106.68;43.13;;;4.50;99.90;;;;;;5035909;28;20113;-77
2022/01/28 09:34:24;;;;;;;115.75;43.45;;;4.50;99.90;;;;;;5036970;28;20521;-77
2022/01/28 09:36:50;;;;;;;100.53;42.58;;;4.50;99.90;;;;;;5036630;28;20037;-77
2022/01/28 09:39:16;;;;;;;103.95;42.60;;;4.50;99.90;;;;;;5036803;28;20190;-78
2022/01/28 09:41:46;;;;;;;107.95;45.08;;;4.50;99.90;;;;;;5054618;28;20208;-77
2022/01/28 09:44:13;;;;;;;116.03;44.78;;;4.40;99.90;;;;;;5036666;28;20021;-77
2022/01/28 09:46:39;;;;;;;122.03;45.42;;;4.50;99.90;;;;;;5067037;28;20020;-77
2022/01/28 09:49:05;;;;;;;125.38;50.08;;;4.50;99.90;;;;;;5074570;28;20460;-77
2022/01/28 09:51:31;;;;;;;119.03;47.78;;;4.60;99.90;;;;;;5056331;28;20387;-77
2022/01/28 09:53:57;;;;;;;121.32;46.08;;;4.60;99.90;;;;;;5074393;28;20105;-77
2022/01/28 09:56:23;;;;;;;120.07;46.70;;;4.60;99.90;;;;;;5074340;28;20066;-75
2022/01/28 09:58:49;;;;;;;113.88;47.08;;;4.70;99.90;;;;;;5054416;28;20033;-77
2022/01/28 10:01:15;;;;;;;120.90;48.03;;;4.70;99.90;;;;;;5073269;28;20031;-78
2022/01/28 10:03:41;;;;;;;108.03;45.63;;;4.70;99.90;;;;;;5056269;28;20029;-77
2022/01/28 10:06:06;;;;;;;122.30;50.85;;;4.80;99.90;;;;;;5056162;28;20029;-77
2022/01/28 10:08:33;;;;;;;120.05;47.35;;;4.80;99.90;;;;;;5074102;28;20481;-77
2022/01/28 10:11:14;;;;;;;122.13;48.00;;;4.90;99.90;;;;;;5074145;28;20064;-77
2022/01/28 10:13:52;;;;;;;117.22;47.40;;;4.90;99.90;;;;;;5055953;28;20033;-77
2022/01/28 10:16:24;;;;;;;130.38;49.75;;;4.90;99.90;;;;;;5058290;28;20053;-77
2022/01/28 10:18:54;;;;;;;116.50;49.35;;;5.00;99.90;;;;;;5073880;28;20024;-77
2022/01/28 10:21:43;;;;;;;124.57;48.38;;;5.00;99.90;;;;;;5074012;28;20025;-77
2022/01/28 10:24:16;;;;;;;124.03;47.33;;;5.00;99.90;;;;;;5074020;28;20021;-77
2022/01/28 10:26:51;;;;;;;118.05;46.58;;;5.00;99.90;;;;;;5065464;28;20218;-77
2022/01/28 10:29:24;;;;;;;121.63;47.75;;;5.00;99.90;;;;;;5073864;28;20028;-77
2022/01/28 10:31:58;;;;;;;115.35;47.78;;;5.10;99.90;;;;;;5066365;28;20107;-77
2022/01/28 10:34:27;;;;;;;117.32;47.83;;;5.20;99.90;;;;;;5072462;28;20051;-77
2022/01/28 10:37:16;;;;;;;119.90;50.10;;;5.20;99.90;;;;;;5066690;28;20028;-76
2022/01/28 10:39:58;;;;;;;122.30;47.97;;;5.30;99.90;;;;;;5073611;28;20034;-77
2022/01/28 10:42:37;;;;;;;113.65;47.90;;;5.30;99.90;;;;;;5070367;28;20521;-77
2022/01/28 10:45:21;;;;;;;107.13;45.85;;;5.30;99.90;;;;;;5073517;28;20026;-77
2022/01/28 10:47:55;;;;;;;118.85;49.25;;;5.40;99.90;;;;;;5065711;28;20081;-77
2022/01/28 10:50:33;;;;;;;119.35;48.95;;;5.40;99.90;;;;;;5072238;28;20393;-77
2022/01/28 10:53:15;;;;;;;125.55;47.20;;;5.50;99.90;;;;;;5073237;28;20021;-78
2022/01/28 10:55:50;;;;;;;118.97;48.92;;;5.50;99.90;;;;;;5064564;28;20119;-77
2022/01/28 10:58:18;;;;;;;123.18;46.70;;;5.50;99.90;;;;;;5073378;28;20478;-77
2022/01/28 11:00:47;;;;;;;124.63;47.25;;;5.60;99.90;;;;;;5073371;28;20025;-77
2022/01/28 11:03:16;;;;;;;119.85;45.85;;;5.60;99.90;;;;;;5073178;28;20021;-77
2022/01/28 11:05:46;;;;;;;118.93;45.22;;;5.70;99.90;;;;;;5073229;28;20016;-78
2022/01/28 11:08:14;;;;;;;116.10;47.58;;;5.70;99.90;;;;;;5073088;28;20021;-77
2022/01/28 11:10:41;;;;;;;125.72;49.72;;;5.70;99.90;;;;;;5073002;28;20108;-77
2022/01/28 11:13:08;;;;;;;114.97;46.22;;;5.80;99.90;;;;;;5067980;28;20025;-77
2022/01/28 11:15:35;;;;;;;110.07;44.30;;;5.80;99.90;;;;;;5072838;28;20027;-77
2022/01/28 11:18:04;;;;;;;123.35;46.17;;;5.80;99.90;;;;;;5052728;28;20053;-77
2022/01/28 11:20:49;;;;;;;107.50;44.33;;;5.80;99.90;;;;;;5034989;28;20457;-78
2022/01/28 11:23:21;;;;;;;122.10;46.38;;;5.90;99.90;;;;;;5052620;28;20049;-76
2022/01/28 11:26:15;;;;;;;109.57;44.17;;;5.90;99.90;;;;;;5052785;28;20123;-78
2022/01/28 11:28:54;;;;;;;111.80;46.90;;;6.00;99.90;;;;;;5052692;28;20053;-77
2022/01/28 11:31:45;;;;;;;113.85;45.40;;;6.00;99.90;;;;;;5052643;28;20253;-78
2022/01/28 11:34:25;;;;;;;111.07;42.95;;;6.10;99.90;;;;;;5052855;28;20142;-77
2022/01/28 11:36:53;;;;;;;120.28;46.72;;;6.20;99.90;;;;;;5052521;28;20048;-77
2022/01/28 11:39:28;;;;;;;118.68;46.08;;;6.20;99.90;;;;;;5034628;28;20044;-77
2022/01/28 11:42:06;;;;;;;109.78;45.35;;;6.30;99.90;;;;;;5026762;28;20491;-77
2022/01/28 11:44:50;;;;;;;107.43;44.63;;;6.30;99.90;;;;;;5032474;28;20025;-78
2022/01/28 11:47:27;;;;;;;106.15;44.38;;;6.40;99.90;;;;;;5032365;28;20025;-77
2022/01/28 11:50:10;;;;;;;102.20;43.17;;;6.50;99.90;;;;;;5031276;28;20091;-77
2022/01/28 11:52:43;;;;;;;;;;;6.50;99.90;;;;;;5014881;28;20386;-77
2022/01/28 11:55:32;;;;;;;108.95;42.55;;;6.50;99.90;;;;;;5034341;28;19905;-77
2022/01/28 11:58:07;;;;;;;104.70;43.70;;;6.50;99.90;;;;;;5026725;28;20402;-78
2022/01/28 12:00:47;;;;;;;103.68;43.15;;;6.60;99.90;;;;;;5032090;28;20032;-77
2022/01/28 12:03:28;;;;;;;105.55;42.67;;;6.70;99.90;;;;;;5032219;28;20039;-77
2022/01/28 12:06:08;;;;;;;114.95;45.83;;;6.70;99.90;;;;;;5032197;28;20037;-77
2022/01/28 12:08:36;;;;;;;107.75;43.00;;;6.80;99.90;;;;;;5032160;28;20079;-77
2022/01/28 12:11:06;;;;;;;112.00;45.05;;;6.90;99.90;;;;;;5014354;28;20116;-75
2022/01/28 12:14:07;;;;;;;112.43;41.95;;;7.00;99.90;;;;;;5031905;28;20056;-75
2022/01/28 12:16:40;;;;;;;110.38;43.75;;;7.10;99.90;;;;;;5034863;28;20098;-77
2022/01/28 12:19:20;;;;;;;104.97;43.58;;;7.00;99.90;;;;;;5033856;28;20033;-77
2022/01/28 12:22:07;;;;;;;101.65;41.33;;;7.00;99.90;;;;;;5051650;28;20027;-77
2022/01/28 12:24:35;;;;;;;108.55;45.05;;;7.10;99.90;;;;;;5033864;28;20379;-77
2022/01/28 12:27:10;;;;;;;114.80;43.63;;;7.10;99.90;;;;;;5033774;28;20094;-77
2022/01/28 12:29:42;;;;;;;108.00;45.33;;;7.10;99.90;;;;;;5051580;28;20105;-77
2022/01/28 12:32:10;;;;;;;115.43;46.92;;;7.10;99.90;;;;;;5051444;28;20108;-77
2022/01/28 12:34:44;;;;;;;102.22;42.97;;;7.10;99.90;;;;;;5033697;28;20033;-77
2022/01/28 12:37:10;;;;;;;109.15;44.53;;;7.20;99.90;;;;;;5051420;28;20036;-77
2022/01/28 12:39:49;;;;;;;107.05;43.05;;;7.20;99.90;;;;;;5051445;28;20029;-77
2022/01/28 12:42:24;;;;;;;113.07;45.17;;;7.20;99.90;;;;;;5033624;28;20032;-77
2022/01/28 12:44:54;;;;;;;96.40;42.88;;;7.20;99.90;;;;;;5033435;28;20025;-77
2022/01/28 12:47:21;;;;;;;105.82;44.92;;;7.20;99.90;;;;;;5033603;28;20037;-77
2022/01/28 12:49:56;;;;;;;109.05;43.70;;;7.20;99.90;;;;;;5033471;28;20033;-77
2022/01/28 12:52:22;;;;;;;99.28;43.30;;;7.20;99.90;;;;;;5051351;28;20025;-78
2022/01/28 12:54:48;;;;;;;115.90;46.80;;;7.20;99.90;;;;;;5033560;28;20094;-77
2022/01/28 12:57:17;;;;;;;115.85;47.03;;;7.20;99.90;;;;;;5051341;28;20482;-77
2022/01/28 12:59:47;;;;;;;107.88;45.33;;;7.20;99.90;;;;;;5033471;28;20494;-77
2022/01/28 13:02:15;;;;;;;105.28;43.25;;;7.10;99.90;;;;;;5051200;28;20106;-77
2022/01/28 13:10:33;;;;;;;103.35;43.13;;;7.10;99.90;;;;;;4955456;29;20087;-77
2022/01/28 13:13:06;;;;;;;105.63;42.78;;;7.20;99.90;;;;;;5015792;28;20090;-77
2022/01/28 13:15:33;;;;;;;107.90;44.05;;;7.10;99.90;;;;;;5055230;28;20052;-77
2022/01/28 13:18:01;;;;;;;114.40;46.58;;;7.10;99.90;;;;;;5054798;28;20037;-77
2022/01/28 13:20:39;;;;;;;118.80;46.13;;;7.10;99.90;;;;;;5037135;28;20025;-78
2022/01/28 13:23:06;;;;;;;120.80;46.33;;;7.10;99.90;;;;;;5055096;28;20017;-77
2022/01/28 13:25:32;;;;;;;110.80;45.38;;;7.20;99.90;;;;;;5055137;28;20017;-77
2022/01/28 13:28:01;;;;;;;113.22;45.60;;;7.10;99.90;;;;;;5055089;28;20047;-75
2022/01/28 13:30:33;;;;;;;109.63;46.53;;;7.10;99.90;;;;;;5054951;28;20021;-75
2022/01/28 13:33:07;;;;;;;111.03;47.33;;;7.10;99.90;;;;;;5054916;28;20021;-75
2022/01/28 13:35:35;;;;;;;115.25;43.72;;;7.10;99.90;;;;;;5054860;28;20025;-77
2022/01/28 13:38:07;;;;;;;106.95;42.88;;;7.10;99.90;;;;;;5072744;28;20054;-77
2022/01/28 13:40:37;;;;;;;110.90;45.53;;;7.10;99.90;;;;;;5074731;28;20016;-77
2022/01/28 13:43:09;;;;;;;113.53;43.65;;;7.10;99.90;;;;;;5074336;28;20512;-77
2022/01/28 13:45:48;;;;;;;104.47;43.47;;;7.10;99.90;;;;;;5056694;28;20024;-77
2022/01/28 13:48:19;;;;;;;112.38;44.30;;;7.10;99.90;;;;;;5074475;28;20021;-77
2022/01/28 13:50:47;;;;;;;111.57;44.67;;;7.10;99.90;;;;;;5074594;28;20031;-77
2022/01/28 13:55:54;;;;;;;113.63;46.65;;;7.00;99.90;;;;;;5074574;28;20421;-77
2022/01/28 13:58:21;;;;;;;104.30;43.55;;;7.10;99.90;;;;;;5074399;28;20470;-77
2022/01/28 14:00:48;;;;;;;117.07;45.35;;;7.10;99.90;;;;;;5074222;28;20025;-77
2022/01/28 14:03:22;;;;;;;109.85;45.65;;;7.10;99.90;;;;;;5074328;28;20566;-77
2022/01/28 14:06:05;;;;;;;115.57;45.33;;;7.10;99.90;;;;;;5074496;28;20031;-77
2022/01/28 14:08:41;;;;;;;112.53;47.22;;;7.10;99.90;;;;;;5056331;28;20111;-77
2022/01/28 14:11:20;;;;;;;115.07;46.17;;;7.10;99.90;;;;;;5056198;28;20062;-77
2022/01/28 14:14:43;;;;;;;118.38;47.33;;;7.10;99.90;;;;;;5074114;28;20031;-77
2022/01/28 14:17:06;;;;;;;113.85;45.42;;;7.20;99.90;;;;;;5072284;28;20047;-77
2022/01/28 14:19:35;;;;;;;112.03;44.20;;;7.20;99.90;;;;;;5074075;28;20012;-77
2022/01/28 14:22:02;;;;;;;113.18;45.65;;;7.20;99.90;;;;;;5073881;28;20394;-77
2022/01/28 14:24:30;;;;;;;115.82;47.30;;;7.20;99.90;;;;;;5073822;28;20390;-77
2022/01/28 14:32:08;;;;;;;;;;;7.30;99.90;;;;;;5074438;28;20033;-77
2022/01/28 14:34:34;;;;;;;104.93;43.67;;;7.30;99.90;;;;;;5069287;28;19909;-77